Time;durP1;ratioP1;P1;durP2;ratioP2;P2;SDS_P1;SDS_P2;PMS_P1;PMS_P2;Temp;Humidity;BMP_temperature;BMP_pressure;BME280_temperature;BME280_humidity;BME280_pressure;Samples;Min_cycle;Max_cycle;Signal;HPM_P1;HPM_P2
2021/07/20 00:02:35;;;;;;;;;11.80;10.80;;;;;25.80;48.54;98675.75;6090456;28;97465;-64
2021/07/20 00:05:41;;;;;;;;;13.00;11.00;;;;;25.62;49.35;98677.69;6073248;28;96668;-66
2021/07/20 00:08:45;;;;;;;;;14.00;13.00;;;;;25.49;49.95;98666.78;6073792;28;98521;-66
2021/07/20 00:11:50;;;;;;;;;12.00;11.00;;;;;25.43;49.91;98666.13;6074816;28;97310;-66
2021/07/20 00:14:53;;;;;;;;;13.00;11.00;;;;;25.35;50.49;98665.00;6081924;28;99640;-65
2021/07/20 00:17:59;;;;;;;;;11.00;10.00;;;;;25.24;50.77;98668.41;6082227;28;96668;-65
2021/07/20 00:21:04;;;;;;;;;13.40;12.40;;;;;25.01;51.84;98659.44;6084157;28;97558;-66
2021/07/20 00:24:11;;;;;;;;;14.40;13.00;;;;;24.95;51.82;98669.00;6090553;28;97468;-66
2021/07/20 00:27:15;;;;;;;;;14.60;13.40;;;;;24.94;51.98;98673.69;6090865;28;96595;-65
2021/07/20 00:30:19;;;;;;;;;13.00;12.00;;;;;24.89;52.36;98671.09;6089999;28;97289;-65
2021/07/20 00:33:22;;;;;;;;;15.40;14.00;;;;;24.86;52.66;98671.72;6090589;28;96744;-67
2021/07/20 00:36:26;;;;;;;;;10.33;10.33;;;;;24.81;52.60;98669.09;6078136;28;99195;-66
2021/07/20 00:39:29;;;;;;;;;14.00;12.00;;;;;24.72;52.59;98667.44;6085994;28;97295;-66
2021/07/20 00:42:34;;;;;;;;;14.50;13.25;;;;;24.69;52.54;98666.13;6078426;28;98034;-66
2021/07/20 00:45:38;;;;;;;;;13.00;11.00;;;;;24.67;52.60;98662.91;6090400;28;97133;-64
2021/07/20 00:48:41;;;;;;;;;14.40;13.40;;;;;24.63;52.99;98663.84;6090684;28;96971;-65
2021/07/20 00:52:06;;;;;;;;;12.40;11.00;;;;;24.50;53.23;98663.63;6087558;28;97075;-65
2021/07/20 00:55:11;;;;;;;;;13.00;12.00;;;;;24.40;53.27;98652.88;6086938;28;96690;-68
2021/07/20 00:58:18;;;;;;;;;15.00;11.00;;;;;24.39;53.67;98658.72;6084967;28;97373;-65
2021/07/20 01:01:22;;;;;;;;;12.20;11.20;;;;;24.40;54.20;98663.09;6090816;28;96611;-66
2021/07/20 01:04:30;;;;;;;;;13.20;11.80;;;;;24.32;53.75;98661.94;6044112;28;98700;-66
2021/07/20 01:07:35;;;;;;;;;11.00;10.60;;;;;24.32;53.81;98661.94;6083892;28;97495;-67
2021/07/20 01:10:42;;;;;;;;;12.00;10.60;;;;;24.17;54.16;98651.31;6059468;28;97202;-65
2021/07/20 01:13:50;;;;;;;;;13.60;11.60;;;;;24.23;54.17;98668.53;6073099;28;98105;-67
2021/07/20 01:16:57;;;;;;;;;16.00;13.00;;;;;24.12;54.56;98667.97;6072518;28;98590;-66
2021/07/20 01:20:02;;;;;;;;;13.40;12.40;;;;;24.11;54.71;98667.13;6070241;28;97366;-67
2021/07/20 01:23:16;;;;;;;;;15.00;14.40;;;;;24.13;54.42;98653.06;6088039;28;98331;-66
2021/07/20 01:26:22;;;;;;;;;17.50;16.50;;;;;24.10;54.42;98659.19;6088996;28;97062;-65
2021/07/20 01:29:29;;;;;;;;;16.00;14.00;;;;;24.11;54.81;98661.63;6073387;28;97773;-65
2021/07/20 01:32:33;;;;;;;;;13.00;12.00;;;;;24.11;54.90;98664.38;6083305;28;97315;-64
2021/07/20 01:35:38;;;;;;;;;16.40;16.00;;;;;24.14;54.90;98655.47;6088004;28;97067;-66
2021/07/20 01:38:44;;;;;;;;;16.40;15.00;;;;;24.17;54.85;98654.09;6085102;28;97240;-67
2021/07/20 01:41:49;;;;;;;;;15.60;14.00;;;;;24.19;54.67;98654.56;6092207;28;97516;-65
2021/07/20 01:44:54;;;;;;;;;15.00;14.40;;;;;24.18;54.80;98655.72;6086767;28;98271;-66
2021/07/20 01:48:01;;;;;;;;;15.00;15.00;;;;;24.08;54.92;98645.75;6077010;28;97068;-65
2021/07/20 01:51:08;;;;;;;;;13.00;11.00;;;;;24.11;54.79;98653.38;6069787;28;97944;-65
2021/07/20 01:54:13;;;;;;;;;14.00;13.00;;;;;24.05;54.90;98656.56;6088962;28;98457;-66
2021/07/20 01:57:20;;;;;;;;;14.00;13.00;;;;;24.03;55.09;98661.59;6090793;28;97486;-67
2021/07/20 02:00:42;;;;;;;;;15.00;13.33;;;;;24.09;55.25;98663.09;6077635;28;97143;-67
2021/07/20 02:04:21;;;;;;;;;15.50;13.50;;;;;24.06;55.28;98669.22;6075386;28;96760;-67
2021/07/20 02:11:02;;;;;;;;;15.00;13.60;;;;;24.00;54.93;98671.28;6045510;28;97516;-67
2021/07/20 02:14:29;;;;;;;;;14.00;12.60;;;;;23.92;55.00;98668.47;6086756;28;97470;-67
2021/07/20 02:18:02;;;;;;;;;15.00;12.80;;;;;23.98;55.19;98681.81;6068632;28;97549;-66
2021/07/20 02:21:10;;;;;;;;;14.40;12.40;;;;;23.98;55.63;98678.25;6058034;28;98504;-66
2021/07/20 02:24:28;;;;;;;;;12.75;12.00;;;;;24.05;55.67;98684.09;6086535;28;97331;-66
2021/07/20 02:27:33;;;;;;;;;14.80;13.00;;;;;24.07;55.44;98684.63;6084434;28;96992;-64
2021/07/20 02:30:40;;;;;;;;;16.60;13.60;;;;;23.97;55.28;98677.41;6071041;28;97150;-67
2021/07/20 02:33:45;;;;;;;;;15.00;13.60;;;;;24.07;54.91;98690.94;6069334;28;96838;-65
2021/07/20 02:36:51;;;;;;;;;16.60;15.00;;;;;23.95;55.34;98676.91;6050669;28;97872;-65
2021/07/20 02:39:54;;;;;;;;;15.00;13.60;;;;;24.05;55.44;98690.44;6064074;28;99478;-67
2021/07/20 02:43:02;;;;;;;;;15.00;13.20;;;;;23.99;55.45;98685.38;6081931;28;96709;-65
2021/07/20 02:46:11;;;;;;;;;14.00;13.00;;;;;24.02;55.13;98690.25;6074165;28;97108;-65
2021/07/20 02:49:19;;;;;;;;;16.40;15.00;;;;;24.00;54.95;98684.22;6075842;28;96969;-65
2021/07/20 02:52:23;;;;;;;;;14.60;13.00;;;;;23.98;55.45;98695.59;6091284;28;97470;-66
2021/07/20 02:55:29;;;;;;;;;16.50;15.75;;;;;23.98;55.35;98700.28;6086512;28;97923;-67
2021/07/20 03:00:22;;;;;;;;;17.25;15.00;;;;;23.95;54.86;98696.19;6361737;27;96218;-65
2021/07/20 03:03:40;;;;;;;;;14.40;12.40;;;;;23.96;54.68;98695.06;6299454;27;97153;-67
2021/07/20 03:06:50;;;;;;;;;15.40;15.00;;;;;23.97;54.71;98704.16;6322678;27;97450;-66
2021/07/20 03:09:56;;;;;;;;;15.00;14.00;;;;;23.93;54.65;98697.66;6306637;27;96619;-66
2021/07/20 03:13:04;;;;;;;;;15.00;14.00;;;;;23.91;54.62;98692.44;6311011;27;97522;-65
2021/07/20 03:16:17;;;;;;;;;19.50;15.00;;;;;23.89;54.56;98708.47;6308180;27;96773;-66
2021/07/20 03:19:26;;;;;;;;;16.00;14.60;;;;;23.83;54.97;98693.19;6322380;27;96637;-66
2021/07/20 03:22:33;;;;;;;;;15.00;14.75;;;;;23.82;54.68;98696.25;6321650;27;96544;-67
2021/07/20 03:25:45;;;;;;;;;16.60;15.60;;;;;23.93;54.44;98697.66;6306214;27;97260;-67
2021/07/20 03:28:51;;;;;;;;;15.00;14.00;;;;;23.93;54.23;98700.41;6304089;27;97425;-67
2021/07/20 03:31:57;;;;;;;;;17.00;15.00;;;;;23.91;54.34;98695.19;6288346;27;98300;-66
2021/07/20 03:35:05;;;;;;;;;17.00;15.00;;;;;23.87;54.14;98701.63;6303613;27;97054;-65
2021/07/20 03:38:11;;;;;;;;;16.00;14.00;;;;;23.87;54.16;98702.47;6307483;27;96775;-67
2021/07/20 03:41:17;;;;;;;;;16.00;14.20;;;;;23.84;54.45;98694.84;6332819;27;97455;-65
2021/07/20 03:44:24;;;;;;;;;16.00;15.00;;;;;23.80;54.80;98693.81;6318482;27;97707;-67
2021/07/20 03:47:30;;;;;;;;;15.75;15.00;;;;;23.83;55.11;98695.13;6333306;27;97164;-66
2021/07/20 03:50:34;;;;;;;;;16.25;14.50;;;;;23.83;54.83;98689.63;6310978;27;97389;-65
2021/07/20 03:53:39;;;;;;;;;16.00;15.00;;;;;23.89;54.77;98691.97;6307870;27;96777;-65
2021/07/20 03:56:44;;;;;;;;;18.00;17.00;;;;;23.87;54.56;98699.72;6331821;27;97071;-66
2021/07/20 03:59:49;;;;;;;;;18.00;15.00;;;;;23.84;54.57;98697.59;6333463;27;99540;-65
2021/07/20 04:03:25;;;;;;;;;14.00;14.00;;;;;23.81;54.78;98697.38;6293194;27;96893;-64
2021/07/20 04:06:41;;;;;;;;;14.00;13.00;;;;;23.81;54.91;98697.38;6304806;27;96885;-68
2021/07/20 04:10:04;;;;;;;;;15.60;15.00;;;;;23.86;54.94;98698.06;6279359;27;96636;-66
2021/07/20 04:13:26;;;;;;;;;16.80;15.00;;;;;23.83;54.64;98697.88;6306178;27;96932;-65
2021/07/20 04:16:53;;;;;;;;;15.00;14.00;;;;;23.79;54.97;98696.91;6307914;27;96844;-66
2021/07/20 04:19:59;;;;;;;;;17.00;15.00;;;;;23.83;54.97;98690.44;6304980;27;97421;-67
2021/07/20 04:23:08;;;;;;;;;17.00;16.00;;;;;23.87;55.07;98696.13;6284679;27;97463;-66
2021/07/20 04:26:22;;;;;;;;;16.40;14.40;;;;;23.88;55.12;98700.53;6289796;27;96663;-64
2021/07/20 04:29:28;;;;;;;;;17.00;15.00;;;;;23.84;54.98;98697.59;6293339;27;96982;-66
2021/07/20 04:32:33;;;;;;;;;16.40;14.00;;;;;23.83;54.50;98695.97;6265734;27;97021;-66
2021/07/20 04:35:43;;;;;;;;;16.80;15.40;;;;;23.85;55.04;98695.66;6286391;27;97120;-66
2021/07/20 04:38:48;;;;;;;;;16.00;15.00;;;;;23.87;55.01;98693.38;6280898;27;97957;-67
2021/07/20 04:41:52;;;;;;;;;18.00;16.00;;;;;23.88;55.41;98700.53;6269195;27;96764;-67
2021/07/20 04:44:55;;;;;;;;;17.60;16.00;;;;;23.94;54.80;98689.06;6302977;27;97332;-68
2021/07/20 04:48:22;;;;;;;;;15.00;14.25;;;;;24.01;54.39;98686.69;6292501;27;96934;-66
2021/07/20 04:51:51;;;;;;;;;16.00;15.80;;;;;24.05;54.65;98695.13;6284705;27;97562;-67
2021/07/20 04:54:56;;;;;;;;;17.20;16.00;;;;;24.07;54.68;98693.69;6309095;27;96955;-67
2021/07/20 04:58:01;;;;;;;;;14.25;13.25;;;;;24.04;54.67;98699.03;6292160;27;96596;-67
2021/07/20 05:01:06;;;;;;;;;17.00;15.00;;;;;24.02;54.64;98704.84;6313083;27;98097;-65
2021/07/20 05:04:10;;;;;;;;;18.00;15.00;;;;;24.04;54.78;98710.03;6298677;27;97694;-65
2021/07/20 05:07:22;;;;;;;;;17.00;15.00;;;;;24.03;54.72;98713.91;6295077;27;96880;-66
2021/07/20 05:10:32;;;;;;;;;18.25;17.00;;;;;24.00;54.61;98712.59;6288084;27;97254;-66
2021/07/20 05:13:49;;;;;;;;;16.00;14.50;;;;;24.03;54.95;98711.97;6289721;27;96431;-67
2021/07/20 05:16:58;;;;;;;;;14.00;13.60;;;;;24.05;55.32;98715.22;6309669;27;97888;-65
2021/07/20 05:20:04;;;;;;;;;16.00;14.00;;;;;24.06;54.96;98716.84;6279964;27;99337;-66
2021/07/20 05:23:23;;;;;;;;;14.75;14.00;;;;;23.92;54.71;98709.78;6308142;27;97147;-66
2021/07/20 05:26:33;;;;;;;;;16.20;14.80;;;;;24.00;54.91;98715.34;6299965;27;96852;-67
2021/07/20 05:29:38;;;;;;;;;16.00;14.00;;;;;23.92;54.71;98707.84;6306018;27;96435;-66
2021/07/20 05:33:11;;;;;;;;;13.00;12.33;;;;;24.01;54.94;98725.22;6275868;27;97392;-65
2021/07/20 05:36:29;;;;;;;;;16.00;15.33;;;;;24.01;54.72;98725.22;6281545;27;96751;-67
2021/07/20 05:39:37;;;;;;;;;13.80;13.00;;;;;24.03;55.09;98722.16;6295675;27;97508;-66
2021/07/20 05:42:55;;;;;;;;;15.60;14.00;;;;;24.04;55.02;98726.56;6281197;27;97381;-67
2021/07/20 05:46:09;;;;;;;;;17.00;16.00;;;;;24.02;55.24;98721.34;6301481;27;96499;-65
2021/07/20 05:49:14;;;;;;;;;16.50;15.00;;;;;24.07;54.97;98732.25;6317120;27;96888;-66
2021/07/20 05:52:18;;;;;;;;;13.50;11.25;;;;;24.11;54.33;98727.72;6313867;27;97595;-66
2021/07/20 05:55:30;;;;;;;;;16.00;15.00;;;;;24.09;54.62;98737.44;6309322;27;97631;-65
2021/07/20 05:58:34;;;;;;;;;16.20;15.00;;;;;24.10;54.07;98739.06;6306342;27;96706;-65
2021/07/20 06:01:40;;;;;;;;;16.60;15.00;;;;;24.08;54.59;98731.13;6310905;27;96406;-65
2021/07/20 06:04:50;;;;;;;;;16.00;14.60;;;;;24.10;54.29;98737.13;6295086;27;97396;-65
2021/07/20 06:07:57;;;;;;;;;14.20;13.00;;;;;24.14;54.19;98740.88;6303839;27;96465;-66
2021/07/20 06:11:05;;;;;;;;;15.00;13.60;;;;;24.10;54.78;98741.81;6297467;27;96628;-64
2021/07/20 06:14:11;;;;;;;;;15.00;13.00;;;;;24.00;54.38;98726.34;6313585;27;96907;-65
2021/07/20 06:17:14;;;;;;;;;14.00;12.00;;;;;24.15;54.52;98744.44;6313932;27;97265;-65
2021/07/20 06:20:19;;;;;;;;;13.60;12.20;;;;;24.17;54.15;98745.78;6313436;27;96980;-65
2021/07/20 06:23:24;;;;;;;;;15.00;14.40;;;;;24.17;54.21;98754.06;6310475;27;96636;-66
2021/07/20 06:26:29;;;;;;;;;17.20;15.00;;;;;24.16;53.69;98752.44;6313187;27;97564;-64
2021/07/20 06:29:33;;;;;;;;;14.00;14.00;;;;;24.15;53.51;98752.69;6313695;27;96641;-66
2021/07/20 06:32:37;;;;;;;;;14.00;13.00;;;;;24.12;53.36;98764.34;6294386;27;96877;-68
2021/07/20 06:35:41;;;;;;;;;13.00;12.00;;;;;24.03;53.40;98769.00;6312960;27;97474;-66
2021/07/20 06:38:46;;;;;;;;;12.40;11.00;;;;;23.92;53.83;98764.84;6293508;27;96668;-67
2021/07/20 06:41:56;;;;;;;;;14.00;13.00;;;;;23.91;54.23;98765.97;6284117;27;96604;-66
2021/07/20 06:45:00;;;;;;;;;11.60;11.60;;;;;23.88;54.03;98770.16;6312553;27;98022;-64
2021/07/20 06:48:07;;;;;;;;;16.00;13.00;;;;;23.82;53.97;98771.41;6282592;27;96785;-66
2021/07/20 06:51:12;;;;;;;;;15.60;14.00;;;;;23.74;53.99;98784.00;6313174;27;97361;-65
2021/07/20 06:54:16;;;;;;;;;14.00;12.00;;;;;23.72;54.48;98782.66;6290656;27;97720;-67
2021/07/20 06:57:24;;;;;;;;;16.00;13.60;;;;;23.76;54.78;98778.16;6306259;27;96627;-65
2021/07/20 07:00:30;;;;;;;;;16.40;14.80;;;;;23.81;54.68;98780.78;6312376;27;96471;-66
2021/07/20 07:03:43;;;;;;;;;14.00;13.40;;;;;23.91;54.91;98775.03;6296115;27;97244;-67
2021/07/20 07:06:49;;;;;;;;;17.50;15.25;;;;;24.02;55.06;98781.94;6292695;27;98714;-65
2021/07/20 07:09:54;;;;;;;;;17.00;13.00;;;;;24.07;54.70;98778.25;6276500;27;96734;-66
2021/07/20 07:13:05;;;;;;;;;17.00;17.00;;;;;24.07;54.66;98787.34;6302682;27;97936;-65
2021/07/20 07:16:09;;;;;;;;;16.00;15.50;;;;;24.07;54.24;98778.25;6305226;27;96698;-65
2021/07/20 07:19:15;;;;;;;;;17.00;15.75;;;;;24.05;53.91;98786.81;6303295;27;97531;-66
2021/07/20 07:22:21;;;;;;;;;20.00;18.60;;;;;24.01;54.45;98788.56;6298296;27;97672;-67
2021/07/20 07:25:26;;;;;;;;;22.00;20.00;;;;;24.02;53.47;98789.38;6308404;27;97505;-65
2021/07/20 07:28:33;;;;;;;;;22.50;20.50;;;;;24.02;54.12;98783.88;6303946;27;97831;-65
2021/07/20 07:31:36;;;;;;;;;23.80;21.00;;;;;24.08;53.98;98783.47;6308463;27;97461;-64
2021/07/20 07:34:40;;;;;;;;;21.40;19.00;;;;;24.02;53.31;98778.38;6300135;27;97157;-65
2021/07/20 07:37:45;;;;;;;;;15.00;14.00;;;;;24.12;54.18;98781.69;6310730;27;96544;-66
2021/07/20 07:40:52;;;;;;;;;17.00;16.00;;;;;24.27;54.12;98788.00;6302875;27;96949;-66
2021/07/20 07:43:58;;;;;;;;;18.50;16.00;;;;;24.34;53.47;98780.91;6299120;27;96827;-65
2021/07/20 07:47:04;;;;;;;;;17.00;14.00;;;;;24.45;52.83;98784.22;6307691;27;97128;-65
2021/07/20 07:50:08;;;;;;;;;16.00;14.40;;;;;24.44;53.17;98788.09;6316538;27;98118;-66
2021/07/20 07:53:12;;;;;;;;;11.50;11.00;;;;;24.54;52.50;98791.41;6303159;27;97579;-64
2021/07/20 07:56:16;;;;;;;;;15.20;11.60;;;;;24.66;53.42;98795.53;6316411;27;97347;-67
2021/07/20 07:59:26;;;;;;;;;12.40;12.00;;;;;24.76;52.33;98798.00;6271002;27;97523;-65
2021/07/20 08:02:35;;;;;;;;;13.00;12.00;;;;;24.81;51.88;98792.38;6289312;27;96463;-66
2021/07/20 08:05:41;;;;;;;;;14.00;12.00;;;;;24.93;51.87;98796.16;6274932;27;99760;-67
2021/07/20 08:08:44;;;;;;;;;15.00;13.80;;;;;24.92;50.58;98800.06;6290105;27;96654;-66
2021/07/20 08:11:50;;;;;;;;;12.80;11.80;;;;;24.92;50.05;98800.06;6288809;27;97036;-66
2021/07/20 08:14:58;;;;;;;;;13.00;11.00;;;;;24.91;50.74;98806.72;6290695;27;96551;-66
2021/07/20 08:18:03;;;;;;;;;15.00;12.00;;;;;24.94;51.81;98803.31;6290684;27;96401;-66
2021/07/20 08:21:07;;;;;;;;;14.25;13.00;;;;;24.86;50.16;98804.06;6286914;27;96577;-67
2021/07/20 08:24:12;;;;;;;;;11.00;10.00;;;;;24.76;50.43;98803.53;6285073;27;97762;-66
2021/07/20 08:27:21;;;;;;;;;12.00;12.00;;;;;24.55;50.25;98804.06;6289217;27;97524;-65
2021/07/20 08:30:28;;;;;;;;;14.00;12.20;;;;;24.40;51.19;98811.91;6289982;27;97497;-65
2021/07/20 08:33:34;;;;;;;;;13.75;12.00;;;;;24.32;51.35;98818.97;6289872;27;96455;-66
2021/07/20 08:36:40;;;;;;;;;13.00;11.00;;;;;24.25;51.05;98815.03;6289610;27;97431;-65
2021/07/20 08:39:48;;;;;;;;;11.60;11.00;;;;;24.14;51.77;98814.44;6287184;27;98462;-66
2021/07/20 08:43:02;;;;;;;;;11.00;10.00;;;;;24.15;51.92;98816.88;6289702;27;97446;-66
2021/07/20 08:46:27;;;;;;;;;14.80;10.20;;;;;24.13;51.11;98802.63;6274985;27;96637;-67
2021/07/20 08:49:52;;;;;;;;;12.75;11.75;;;;;24.20;51.40;98804.13;6271211;27;97988;-67
2021/07/20 08:53:05;;;;;;;;;14.50;12.00;;;;;24.25;52.31;98813.09;6289799;27;96702;-65
2021/07/20 08:56:10;;;;;;;;;13.20;11.80;;;;;24.35;51.85;98814.78;6283928;27;96571;-65
2021/07/20 08:59:20;;;;;;;;;11.00;11.00;;;;;24.36;52.07;98821.91;6302582;27;98288;-64
2021/07/20 09:02:37;;;;;;;;;12.40;12.00;;;;;24.40;51.12;98820.16;6302775;27;97741;-65
2021/07/20 09:05:48;;;;;;;;;11.00;10.00;;;;;24.30;51.23;98810.22;6315867;27;96938;-65
2021/07/20 09:08:55;;;;;;;;;13.00;11.00;;;;;24.43;50.58;98816.78;6296506;27;97689;-67
2021/07/20 09:12:05;;;;;;;;;13.50;12.00;;;;;24.38;50.67;98816.94;6313153;27;97595;-67
2021/07/20 09:15:11;;;;;;;;;11.00;10.75;;;;;24.34;50.06;98811.19;6306057;27;96633;-66
2021/07/20 09:18:24;;;;;;;;;12.50;11.00;;;;;24.34;51.14;98811.19;6295761;27;97735;-66
2021/07/20 09:21:31;;;;;;;;;14.00;12.50;;;;;24.43;51.03;98805.78;6314856;27;96536;-66
2021/07/20 09:24:40;;;;;;;;;10.00;10.00;;;;;24.41;50.38;98813.53;6314702;27;97107;-67
2021/07/20 09:27:48;;;;;;;;;9.00;8.00;;;;;24.40;49.74;98820.16;6315163;27;97464;-67
2021/07/20 09:30:54;;;;;;;;;12.25;11.00;;;;;24.50;50.68;98808.88;6294129;27;98724;-66
2021/07/20 09:34:14;;;;;;;;;11.00;10.00;;;;;24.53;51.03;98816.53;6303798;27;96487;-65
2021/07/20 09:37:23;;;;;;;;;12.00;11.00;;;;;24.53;51.68;98813.78;6303477;27;96641;-67
2021/07/20 09:40:40;;;;;;;;;12.40;11.00;;;;;24.54;50.06;98809.88;6296008;27;96661;-65
2021/07/20 09:43:53;;;;;;;;;12.80;10.20;;;;;24.75;50.15;98813.75;6311838;27;96680;-65
2021/07/20 09:47:06;;;;;;;;;12.25;12.00;;;;;24.76;49.78;98814.56;6314261;27;97322;-65
2021/07/20 09:50:15;;;;;;;;;11.20;11.00;;;;;24.89;49.69;98810.91;6295939;27;96413;-65
2021/07/20 09:53:43;;;;;;;;;12.00;11.00;;;;;24.94;50.02;98821.81;6306870;27;99459;-67
2021/07/20 09:57:10;;;;;;;;;14.00;13.00;;;;;25.08;50.28;98807.91;6313886;27;97515;-67
2021/07/20 10:00:18;;;;;;;;;12.50;12.00;;;;;25.18;49.84;98808.44;6283844;27;97375;-67
2021/07/20 10:03:26;;;;;;;;;14.25;14.00;;;;;25.26;49.84;98806.88;6312401;27;96714;-67
2021/07/20 10:06:38;;;;;;;;;12.60;12.00;;;;;25.32;49.09;98805.56;6295380;27;99572;-66
2021/07/20 10:09:48;;;;;;;;;15.00;13.00;;;;;25.37;48.85;98808.16;6310233;27;97694;-66
2021/07/20 10:13:01;;;;;;;;;14.20;12.00;;;;;25.51;48.65;98808.84;6313836;27;97970;-65
2021/07/20 10:16:16;;;;;;;;;14.00;12.00;;;;;25.71;49.38;98808.28;6280938;27;97757;-65
2021/07/20 10:19:28;;;;;;;;;13.00;12.00;;;;;25.86;48.01;98805.03;6313494;27;97491;-68
2021/07/20 10:22:39;;;;;;;;;11.00;10.40;;;;;25.91;47.89;98800.50;6294163;27;100252;-67
2021/07/20 10:25:47;;;;;;;;;14.00;12.00;;;;;26.03;48.80;98804.25;6275284;27;97386;-65
2021/07/20 10:28:59;;;;;;;;;12.60;11.60;;;;;26.09;48.45;98799.38;6277443;27;98453;-64
2021/07/20 10:32:08;;;;;;;;;14.40;13.40;;;;;26.18;47.83;98800.19;6281237;27;98157;-69
2021/07/20 10:35:20;;;;;;;;;14.00;12.00;;;;;26.14;47.21;98782.63;6313215;27;97461;-65
2021/07/20 10:38:31;;;;;;;;;16.20;13.20;;;;;26.18;47.61;98784.41;6307159;27;97485;-67
2021/07/20 10:41:41;;;;;;;;;14.00;13.00;;;;;26.23;47.81;98789.00;6291506;27;98792;-66
2021/07/20 10:44:54;;;;;;;;;13.00;12.00;;;;;26.18;48.13;98780.84;6293219;27;97665;-65
2021/07/20 10:48:02;;;;;;;;;12.00;10.00;;;;;26.11;47.87;98784.09;6279220;27;97529;-65
2021/07/20 10:51:11;;;;;;;;;14.60;12.60;;;;;25.92;47.57;98780.03;6293398;27;96795;-67
2021/07/20 10:54:25;;;;;;;;;11.75;11.75;;;;;25.90;47.68;98780.38;6287992;27;96675;-65
2021/07/20 10:57:36;;;;;;;;;14.00;11.00;;;;;25.96;48.05;98781.00;6309381;27;97461;-67
2021/07/20 11:00:50;;;;;;;;;11.00;11.00;;;;;25.90;47.24;98788.66;6293990;27;96832;-66
2021/07/20 11:04:13;;;;;;;;;13.80;12.20;;;;;25.77;47.21;98781.31;6295458;27;96812;-66
2021/07/20 11:07:24;;;;;;;;;11.00;11.00;;;;;25.86;47.15;98784.91;6313117;27;96557;-67
2021/07/20 11:10:33;;;;;;;;;13.60;13.00;;;;;25.92;46.81;98777.25;6312260;27;96570;-65
2021/07/20 11:13:40;;;;;;;;;15.20;12.20;;;;;26.03;47.26;98784.91;6311710;27;96717;-67
2021/07/20 11:16:44;;;;;;;;;14.00;12.00;;;;;25.99;47.48;98785.91;6294102;27;97604;-65
2021/07/20 11:19:52;;;;;;;;;13.60;12.60;;;;;26.02;47.32;98785.22;6310548;27;97523;-65
2021/07/20 11:22:58;;;;;;;;;12.00;11.40;;;;;26.10;47.19;98796.28;6316851;27;97076;-66
2021/07/20 11:26:05;;;;;;;;;11.60;11.00;;;;;26.14;47.30;98783.47;6307957;27;97518;-66
2021/07/20 11:29:08;;;;;;;;;11.20;10.20;;;;;26.28;47.21;98786.88;6291102;27;98781;-65
2021/07/20 11:32:17;;;;;;;;;16.00;14.40;;;;;26.34;46.06;98784.75;6316924;27;97432;-66
2021/07/20 11:35:23;;;;;;;;;15.40;14.00;;;;;26.46;47.16;98784.06;6316876;27;97530;-67
2021/07/20 11:38:29;;;;;;;;;15.00;13.40;;;;;26.48;46.06;98781.81;6316997;27;98101;-67
2021/07/20 11:41:41;;;;;;;;;14.40;13.60;;;;;26.44;46.35;98786.38;6315680;27;96655;-66
2021/07/20 11:44:51;;;;;;;;;13.00;12.25;;;;;26.43;46.98;98773.69;6297514;27;96854;-66
2021/07/20 11:48:03;;;;;;;;;13.25;13.00;;;;;26.42;46.21;98772.06;6300036;27;96682;-66
2021/07/20 11:51:11;;;;;;;;;15.60;14.00;;;;;26.38;47.24;98768.31;6302810;27;97711;-67
2021/07/20 11:54:24;;;;;;;;;15.00;12.40;;;;;26.43;46.65;98768.16;6316845;27;97427;-66
2021/07/20 11:58:03;;;;;;;;;12.00;11.60;;;;;26.40;46.06;98761.31;6316040;27;97304;-68
2021/07/20 12:01:39;;;;;;;;;12.60;11.20;;;;;26.40;46.38;98761.31;6265943;27;97285;-65
2021/07/20 12:05:07;;;;;;;;;13.00;13.00;;;;;26.42;45.96;98766.53;6307042;27;98445;-65
2021/07/20 12:08:20;;;;;;;;;16.00;13.60;;;;;26.40;46.71;98758.56;6300813;27;96278;-67
2021/07/20 12:11:27;;;;;;;;;12.00;11.25;;;;;26.45;46.24;98755.63;6316226;27;97488;-66
2021/07/20 12:14:31;;;;;;;;;14.00;13.00;;;;;26.41;45.71;98746.38;6316535;27;96470;-66
2021/07/20 12:17:35;;;;;;;;;12.25;11.25;;;;;26.45;44.67;98749.28;6316068;27;96747;-66
2021/07/20 12:20:42;;;;;;;;;14.00;13.00;;;;;26.48;45.19;98749.44;6315266;27;96546;-66
2021/07/20 12:23:46;;;;;;;;;10.25;10.00;;;;;26.52;44.91;98755.94;6297639;27;97456;-66
2021/07/20 12:26:52;;;;;;;;;12.60;10.60;;;;;26.52;45.31;98750.41;6281001;27;97210;-65
2021/07/20 12:29:57;;;;;;;;;13.60;12.60;;;;;26.58;44.96;98751.03;6292052;27;97599;-64
2021/07/20 12:33:13;;;;;;;;;16.00;13.00;;;;;26.70;44.91;98751.16;6280924;27;97355;-65
2021/07/20 12:36:18;;;;;;;;;12.00;11.00;;;;;26.68;44.35;98742.41;6297722;27;97283;-65
2021/07/20 12:39:23;;;;;;;;;11.00;11.00;;;;;26.21;44.84;98658.59;6296631;27;98487;-66
2021/07/20 12:42:34;;;;;;;;;12.00;11.00;;;;;26.75;45.22;98739.91;6301710;27;97510;-65
2021/07/20 12:45:40;;;;;;;;;12.00;12.00;;;;;26.79;45.27;98745.59;6316864;27;97217;-66
2021/07/20 12:48:49;;;;;;;;;13.00;12.00;;;;;26.63;44.35;98710.19;6315622;27;96475;-64
2021/07/20 12:52:00;;;;;;;;;12.20;12.20;;;;;26.73;43.70;98729.16;6280379;27;98207;-66
2021/07/20 12:55:08;;;;;;;;;13.50;12.25;;;;;26.70;44.27;98727.06;6286222;27;97457;-65
2021/07/20 12:58:12;;;;;;;;;13.00;11.20;;;;;26.63;44.04;98715.72;6287018;27;96474;-66
2021/07/20 13:01:17;;;;;;;;;13.40;11.40;;;;;26.63;44.60;98721.22;6303379;27;97996;-66
2021/07/20 13:04:20;;;;;;;;;11.00;10.40;;;;;26.62;44.21;98719.63;6283000;27;97236;-65
2021/07/20 13:07:32;;;;;;;;;12.00;12.00;;;;;26.65;45.07;98726.44;6301971;27;96738;-65
2021/07/20 13:10:35;;;;;;;;;12.00;12.00;;;;;26.73;45.42;98723.63;6303852;27;97425;-64
2021/07/20 13:13:40;;;;;;;;;14.00;11.60;;;;;26.83;45.00;98714.16;6291706;27;97051;-65
2021/07/20 13:16:43;;;;;;;;;14.80;12.00;;;;;26.88;43.99;98730.59;6285962;27;96882;-66
2021/07/20 13:19:47;;;;;;;;;14.00;12.00;;;;;26.83;43.31;98728.00;6286843;27;97720;-65
2021/07/20 13:22:56;;;;;;;;;11.33;11.00;;;;;26.83;42.88;98724.44;6312544;27;96982;-65
2021/07/20 13:26:00;;;;;;;;;10.00;10.00;;;;;26.87;41.74;98723.47;6295762;27;96685;-64
2021/07/20 13:29:05;;;;;;;;;13.50;12.50;;;;;26.95;43.07;98725.38;6313463;27;96459;-65
2021/07/20 13:32:09;;;;;;;;;12.00;11.00;;;;;26.98;42.63;98723.88;6310241;27;96540;-67
2021/07/20 13:35:14;;;;;;;;;12.60;12.00;;;;;27.00;42.05;98716.88;6314279;27;96567;-65
2021/07/20 13:38:19;;;;;;;;;12.40;11.00;;;;;27.11;43.02;98718.13;6294773;27;97209;-66
2021/07/20 13:41:23;;;;;;;;;14.00;13.00;;;;;27.25;42.74;98715.13;6314752;27;97431;-66
2021/07/20 13:44:29;;;;;;;;;13.60;11.60;;;;;27.36;42.88;98712.78;6294251;27;97718;-66
2021/07/20 13:47:39;;;;;;;;;13.00;12.00;;;;;27.46;42.94;98707.66;6314265;27;97414;-66
2021/07/20 13:50:46;;;;;;;;;14.50;11.25;;;;;27.72;41.34;98714.97;6304630;27;97468;-67
2021/07/20 13:53:56;;;;;;;;;12.00;12.00;;;;;28.03;41.44;98704.25;6299626;27;96575;-65
2021/07/20 13:57:00;;;;;;;;;12.00;10.00;;;;;28.19;40.93;98715.56;6284414;27;97810;-65
2021/07/20 14:00:06;;;;;;;;;10.60;9.60;;;;;28.31;40.27;98704.47;6302736;27;97427;-63
2021/07/20 14:03:16;;;;;;;;;12.40;11.40;;;;;28.48;39.63;98711.81;6286271;27;97181;-65
2021/07/20 14:06:20;;;;;;;;;9.80;9.80;;;;;28.62;38.72;98704.78;6303125;27;97471;-64
2021/07/20 14:09:25;;;;;;;;;12.00;10.25;;;;;28.80;36.68;98711.75;6307925;27;97580;-66
2021/07/20 14:12:28;;;;;;;;;11.00;11.00;;;;;29.00;37.12;98709.22;6313419;27;97212;-65
2021/07/20 14:15:34;;;;;;;;;11.20;9.80;;;;;29.20;34.81;98708.28;6294866;27;99864;-67
2021/07/20 14:18:40;;;;;;;;;11.00;10.00;;;;;29.33;35.21;98704.34;6295237;27;96724;-65
2021/07/20 14:21:47;;;;;;;;;11.60;10.20;;;;;29.15;33.93;98711.28;6299866;27;96494;-64
2021/07/20 14:24:53;;;;;;;;;9.40;9.00;;;;;28.99;34.16;98708.41;6313258;27;96522;-65
2021/07/20 14:27:59;;;;;;;;;7.60;7.60;;;;;28.93;34.67;98714.56;6296902;27;96755;-65
2021/07/20 14:31:03;;;;;;;;;9.00;9.00;;;;;28.89;36.35;98711.66;6303985;27;97505;-64
2021/07/20 14:34:11;;;;;;;;;14.00;11.00;;;;;28.85;32.88;98708.75;6297999;27;96506;-65